Time;durP1;ratioP1;P1;durP2;ratioP2;P2;SDS_P1;SDS_P2;PMS_P1;PMS_P2;Temp;Humidity;BMP_temperature;BMP_pressure;BME280_temperature;BME280_humidity;BME280_pressure;Samples;Min_cycle;Max_cycle;Signal;HPM_P1;HPM_P2
2022/01/16 00:04:07;;;;;;;100.13;38.80;;;;;;;2.53;65.70;101167.06;4988241;28;100151;-93
2022/01/16 00:06:36;;;;;;;85.07;36.97;;;;;;;2.34;65.67;101172.03;4942967;28;97105;-93
2022/01/16 00:09:03;;;;;;;110.07;41.03;;;;;;;2.51;65.38;101194.72;4946032;28;97571;-93
2022/01/16 00:11:29;;;;;;;95.10;41.23;;;;;;;2.25;65.63;101157.22;4936773;28;99885;-93
2022/01/16 00:13:54;;;;;;;103.57;43.93;;;;;;;2.47;65.54;101184.31;4957053;28;101207;-93
2022/01/16 00:16:20;;;;;;;108.30;43.57;;;;;;;1.79;66.90;101109.97;4931726;28;96866;-93
2022/01/16 00:18:49;;;;;;;105.93;43.03;;;;;;;2.24;66.34;101183.09;4936517;28;96977;-93
2022/01/16 00:21:39;;;;;;;102.40;42.13;;;;;;;2.28;66.02;101197.00;4922171;28;100328;-93
2022/01/16 00:24:07;;;;;;;97.50;41.77;;;;;;;2.35;65.74;101206.59;4971421;28;100103;-94
2022/01/16 00:26:33;;;;;;;89.50;38.70;;;;;;;2.38;65.89;101199.72;4938412;28;96749;-94
2022/01/16 00:28:58;;;;;;;102.47;42.03;;;;;;;2.30;65.78;101188.41;4923160;28;97442;-93
2022/01/16 00:31:24;;;;;;;92.30;40.27;;;;;;;2.29;65.17;101152.09;4962259;28;100140;-93
2022/01/16 00:33:50;;;;;;;99.37;43.40;;;;;;;2.29;65.16;101113.22;4984752;28;101339;-94
2022/01/16 00:36:18;;;;;;;95.63;43.10;;;;;;;2.31;65.22;101134.84;4938192;28;96690;-93
2022/01/16 00:38:46;;;;;;;92.77;41.97;;;;;;;2.28;65.20;101145.19;4919535;28;96832;-94
2022/01/16 00:41:13;;;;;;;99.70;42.77;;;;;;;2.19;65.18;101127.78;4961061;28;98387;-93
2022/01/16 00:43:39;;;;;;;101.77;42.50;;;;;;;2.04;64.98;101112.94;4972465;28;100029;-93
2022/01/16 00:46:04;;;;;;;98.73;43.30;;;;;;;1.95;65.39;101126.63;4943999;28;96682;-93
2022/01/16 00:48:30;;;;;;;97.57;42.17;;;;;;;1.95;65.13;101141.25;4964216;28;97674;-94
2022/01/16 00:50:56;;;;;;;94.77;40.70;;;;;;;1.93;65.25;101127.44;4932693;28;100589;-93
2022/01/16 00:53:21;;;;;;;98.20;43.97;;;;;;;2.19;64.98;101187.38;4955481;28;98263;-93
2022/01/16 00:55:47;;;;;;;102.37;42.73;;;;;;;2.09;65.28;101152.69;4970985;28;96874;-93
2022/01/16 00:58:12;;;;;;;107.53;45.27;;;;;;;2.06;65.25;101147.47;4955744;28;96936;-93
2022/01/16 01:00:38;;;;;;;95.53;41.13;;;;;;;2.07;65.23;101162.19;4924528;28;98485;-93
2022/01/16 01:03:06;;;;;;;99.70;42.63;;;;;;;1.98;64.68;101160.31;4961910;28;100545;-93
2022/01/16 01:05:32;;;;;;;99.17;43.10;;;;;;;2.04;65.28;101156.97;4946020;28;96792;-93
2022/01/16 01:07:58;;;;;;;98.63;43.97;;;;;;;2.05;65.26;101171.63;4930132;28;97505;-93
2022/01/16 01:10:29;;;;;;;103.03;41.93;;;;;;;1.90;65.15;101179.19;4967638;28;98453;-94
2022/01/16 01:13:07;;;;;;;101.88;43.70;;;;;;;1.91;65.18;101173.16;4924144;28;99744;-93
2022/01/16 01:15:41;;;;;;;103.67;43.87;;;;;;;2.02;64.91;101149.16;4954433;28;96872;-93
2022/01/16 01:18:07;;;;;;;102.10;42.97;;;;;;;1.85;65.00;101123.88;4948734;28;96770;-93
2022/01/16 01:20:34;;;;;;;99.47;44.67;;;;;;;1.86;65.01;101134.22;4933598;28;101349;-93
2022/01/16 01:22:59;;;;;;;97.87;42.87;;;;;;;1.93;65.00;101148.16;4941420;28;101240;-92
2022/01/16 01:25:25;;;;;;;96.63;42.63;;;;;;;1.84;64.67;101132.50;4963582;28;96693;-92
2022/01/16 01:27:51;;;;;;;104.90;42.90;;;;;;;1.85;65.02;101148.03;4947504;28;96957;-92
2022/01/16 01:30:20;;;;;;;99.33;42.10;;;;;;;1.85;65.25;101165.28;4924959;28;101805;-92
2022/01/16 01:32:47;;;;;;;94.13;40.60;;;;;;;1.86;65.02;101164.44;4929381;28;99579;-92
2022/01/16 01:35:14;;;;;;;93.17;40.07;;;;;;;1.80;65.01;101170.38;4938354;28;96939;-92
2022/01/16 01:37:41;;;;;;;97.00;42.57;;;;;;;1.83;64.97;101118.66;4934468;28;96836;-94
2022/01/16 01:40:11;;;;;;;99.80;44.30;;;;;;;1.88;64.52;101028.09;4954144;28;100578;-93
2022/01/16 01:42:44;;;;;;;114.40;43.33;;;;;;;1.56;64.88;100988.00;4957865;28;97254;-93
2022/01/16 01:51:04;;;;;;;95.70;43.27;;;;;;;1.72;65.31;101016.69;4942460;28;100008;-92
2022/01/16 01:53:30;;;;;;;104.70;44.10;;;;;;;1.69;65.18;101063.25;4936008;28;98027;-94
2022/01/16 01:55:55;;;;;;;98.33;43.00;;;;;;;1.77;64.38;101065.06;4936975;28;96820;-91
2022/01/16 01:58:21;;;;;;;100.93;42.50;;;;;;;1.64;64.96;101070.06;4910132;28;96865;-92
2022/01/16 02:00:47;;;;;;;100.87;41.27;;;;;;;1.68;64.64;101061.50;4930771;28;100099;-91
2022/01/16 02:05:41;;;;;;;98.40;42.67;;;;;;;1.72;64.37;101071.06;4931982;28;98138;-92
2022/01/16 02:08:07;;;;;;;97.33;45.17;;;;;;;1.54;64.79;101045.75;4960635;28;97010;-92
2022/01/16 02:10:35;;;;;;;102.33;44.33;;;;;;;1.52;64.76;101063.88;4976905;28;98967;-92
2022/01/16 02:13:04;;;;;;;93.50;40.63;;;;;;;1.64;65.02;101062.31;4941601;28;98518;-93
2022/01/16 02:31:45;;;;;;;;;;;;;;;1.59;64.40;101088.97;4959589;28;101489;-94
2022/01/16 02:37:00;;;;;;;100.13;45.33;;;;;;;1.37;64.65;101053.28;4954416;28;96881;-91
2022/01/16 02:39:27;;;;;;;105.70;46.23;;;;;;;1.54;64.51;101089.75;4960564;28;97353;-93
2022/01/16 02:41:54;;;;;;;102.03;44.77;;;;;;;1.27;64.67;101041.91;4947239;28;100369;-93
2022/01/16 02:44:30;;;;;;;105.90;46.73;;;;;;;1.48;65.41;101089.66;4934281;28;100147;-93
2022/01/16 02:46:58;;;;;;;99.70;43.50;;;;;;;1.39;64.86;101066.25;4961869;28;96956;-93
2022/01/16 02:49:32;;;;;;;97.03;45.80;;;;;;;1.39;65.15;101066.25;4944899;28;97781;-93
2022/01/16 02:52:08;;;;;;;112.27;49.33;;;;;;;1.39;65.58;101063.66;4976679;28;98452;-93
2022/01/16 02:54:37;;;;;;;124.97;49.97;;;;;;;1.15;65.77;101030.53;4939358;28;101542;-93
2022/01/16 02:57:04;;;;;;;112.47;49.43;;;;;;;1.28;65.76;101074.72;4945374;28;97244;-94
2022/01/16 02:59:30;;;;;;;106.87;48.17;;;;;;;1.19;65.49;101040.94;4932475;28;97015;-93
2022/01/16 03:01:55;;;;;;;110.70;45.87;;;;;;;0.98;65.59;101030.25;4941085;28;100215;-92
2022/01/16 03:04:21;;;;;;;112.20;46.57;;;;;;;0.89;65.33;100990.47;4923190;28;101317;-94
2022/01/16 03:06:47;;;;;;;106.10;47.47;;;;;;;1.33;64.91;101052.34;4914969;28;96841;-94
2022/01/16 03:09:14;;;;;;;109.93;46.07;;;;;;;1.33;65.29;101030.78;4937367;28;97881;-91
2022/01/16 03:11:48;;;;;;;111.20;47.40;;;;;;;1.22;65.12;101019.41;4917123;28;100965;-92
2022/01/16 03:14:16;;;;;;;110.13;47.10;;;;;;;1.25;64.91;101016.88;4908377;28;101203;-91
2022/01/16 03:16:46;;;;;;;109.13;47.93;;;;;;;1.29;64.96;101022.13;4943115;28;96738;-92
2022/01/16 03:22:03;;;;;;;102.10;45.60;;;;;;;1.33;64.35;101002.34;4934919;28;101467;-93
2022/01/16 03:24:33;;;;;;;108.47;47.30;;;;;;;1.05;64.57;100968.31;4954930;28;99952;-91
2022/01/16 03:27:01;;;;;;;113.80;48.67;;;;;;;1.07;65.40;100992.47;4934396;28;96961;-92
2022/01/16 03:29:27;;;;;;;118.03;49.57;;;;;;;1.11;65.52;100999.44;4956123;28;96869;-91
2022/01/16 03:31:53;;;;;;;109.90;47.13;;;;;;;1.14;65.16;100993.44;4935090;28;99715;-92
2022/01/16 03:34:19;;;;;;;122.13;48.10;;;;;;;1.17;65.12;100984.88;4969784;28;101242;-93
2022/01/16 03:36:45;;;;;;;116.90;52.13;;;;;;;1.22;64.93;100983.19;4965963;28;96895;-93
2022/01/16 03:39:10;;;;;;;127.37;53.30;;;;;;;1.21;65.05;100971.13;4933097;28;97308;-92
2022/01/16 03:41:37;;;;;;;123.87;53.70;;;;;;;1.00;65.20;100957.03;4944466;28;99858;-92
2022/01/16 03:44:04;;;;;;;121.97;52.27;;;;;;;0.88;65.10;100921.53;4959649;28;100206;-93
2022/01/16 03:46:34;;;;;;;123.73;52.77;;;;;;;1.12;64.79;100967.56;4977024;28;97013;-92
2022/01/16 03:49:08;;;;;;;122.17;53.30;;;;;;;0.96;64.95;100956.94;4985394;28;96849;-92
2022/01/16 03:51:35;;;;;;;119.63;53.60;;;;;;;0.98;64.92;100968.19;4961329;28;101152;-91
2022/01/16 03:54:01;;;;;;;121.93;50.90;;;;;;;1.02;65.22;100954.47;4958190;28;100786;-93
2022/01/16 03:56:27;;;;;;;130.13;52.63;;;;;;;1.01;65.14;100961.34;4974459;28;96645;-94
2022/01/16 03:58:53;;;;;;;129.50;51.27;;;;;;;1.04;65.34;100932.09;4953503;28;96882;-93
2022/01/16 04:01:19;;;;;;;112.23;52.57;;;;;;;1.06;64.97;100931.28;4938912;28;100231;-91
2022/01/16 04:03:44;;;;;;;114.83;52.73;;;;;;;1.17;64.38;100944.38;4963075;28;97802;-93
2022/01/16 04:06:10;;;;;;;120.80;52.57;;;;;;;1.13;64.67;100933.09;4950102;28;97504;-92
2022/01/16 04:08:36;;;;;;;121.33;52.17;;;;;;;0.98;65.42;100929.41;4940004;28;96796;-92
2022/01/16 04:11:02;;;;;;;111.87;50.63;;;;;;;1.15;65.05;100937.44;4961644;28;101654;-93
2022/01/16 04:13:27;;;;;;;113.00;51.87;;;;;;;1.15;64.57;100937.44;4936300;28;101829;-92
2022/01/16 04:15:53;;;;;;;115.87;50.73;;;;;;;0.83;64.61;100878.38;4942480;28;97342;-93
2022/01/16 04:18:19;;;;;;;121.33;51.23;;;;;;;1.12;64.84;100930.50;4931300;28;96944;-94
2022/01/16 04:20:44;;;;;;;115.13;51.57;;;;;;;1.00;64.48;100894.97;4930400;28;99849;-93
2022/01/16 04:23:10;;;;;;;121.80;52.10;;;;;;;0.97;64.74;100920.78;4939199;28;100336;-92
2022/01/16 04:25:36;;;;;;;115.37;50.50;;;;;;;0.98;65.05;100925.09;4922727;28;97319;-92
2022/01/16 04:28:03;;;;;;;119.50;49.93;;;;;;;0.67;65.56;100896.22;4931765;28;96951;-92
2022/01/16 04:30:29;;;;;;;116.57;49.40;;;;;;;0.83;65.81;100910.25;4950896;28;101228;-91
2022/01/16 04:32:54;;;;;;;109.03;49.77;;;;;;;0.94;65.38;100919.88;4960690;28;97576;-92
2022/01/16 04:35:20;;;;;;;118.23;53.17;;;;;;;0.37;65.47;100842.34;4969573;28;96764;-92
2022/01/16 04:37:46;;;;;;;119.03;50.47;;;;;;;0.61;65.69;100911.66;4937673;28;97180;-93
2022/01/16 04:40:12;;;;;;;118.40;52.37;;;;;;;0.47;66.51;100912.25;4954167;28;101083;-94
2022/01/16 04:45:22;;;;;;;116.87;51.53;;;;;;;0.27;66.41;100868.03;4977657;28;96793;-91
2022/01/16 04:47:50;;;;;;;120.37;53.27;;;;;;;0.55;65.84;100896.00;4951525;28;96872;-93
2022/01/16 04:50:16;;;;;;;113.93;49.60;;;;;;;0.45;65.53;100868.31;4944738;28;98652;-92
2022/01/16 04:52:43;;;;;;;130.33;54.27;;;;;;;0.58;65.33;100882.28;4959205;28;101264;-92
2022/01/16 04:55:11;;;;;;;119.40;51.83;;;;;;;0.45;65.49;100879.50;4967140;28;97627;-92
2022/01/16 04:57:36;;;;;;;116.40;51.43;;;;;;;0.44;65.43;100862.28;4961227;28;97308;-92
2022/01/16 05:00:11;;;;;;;114.20;51.17;;;;;;;0.43;65.41;100852.78;4980067;28;101424;-92
2022/01/16 05:02:37;;;;;;;118.20;51.30;;;;;;;0.37;65.13;100844.94;4972651;28;101478;-93
2022/01/16 05:05:03;;;;;;;118.20;52.90;;;;;;;0.41;65.40;100869.13;4947640;28;96786;-91
2022/01/16 05:07:29;;;;;;;125.70;53.37;;;;;;;0.29;65.65;100866.31;4969238;28;96902;-92
2022/01/16 05:09:54;;;;;;;123.40;54.07;;;;;;;0.33;65.62;100865.53;4944479;28;101220;-92
2022/01/16 05:12:32;;;;;;;129.40;55.30;;;;;;;0.27;65.60;100855.97;4931250;28;99973;-92
2022/01/16 05:17:42;;;;;;;131.60;54.50;;;;;;;0.04;65.94;100840.09;4945824;28;96818;-92
2022/01/16 05:20:08;;;;;;;125.50;54.40;;;;;;;0.33;65.89;100866.41;4962855;28;100661;-93
2022/01/16 05:22:33;;;;;;;122.30;51.87;;;;;;;0.03;66.12;100833.22;4974966;28;101086;-91
2022/01/16 05:24:59;;;;;;;110.20;50.50;;;;;;;0.34;65.17;100838.84;4988851;28;97095;-93
2022/01/16 05:27:25;;;;;;;116.00;51.40;;;;;;;0.39;65.09;100837.22;4956805;28;96742;-91
2022/01/16 05:29:50;;;;;;;126.80;50.60;;;;;;;0.28;64.73;100813.81;4953262;28;100081;-92
2022/01/16 05:32:16;;;;;;;119.87;51.03;;;;;;;0.03;64.84;100776.41;4944376;28;100570;-92
2022/01/16 05:34:43;;;;;;;117.97;51.27;;;;;;;0.44;64.74;100831.28;4932139;28;96740;-93
2022/01/16 05:37:08;;;;;;;121.47;51.00;;;;;;;0.33;65.06;100829.38;4947746;28;97465;-91
2022/01/16 05:39:34;;;;;;;113.40;50.57;;;;;;;0.08;65.13;100782.50;4935436;28;101330;-92
2022/01/16 05:42:01;;;;;;;130.17;53.73;;;;;;;0.37;64.99;100823.41;4955450;28;98322;-92
2022/01/16 05:44:26;;;;;;;111.10;51.67;;;;;;;0.31;64.94;100815.56;4934997;28;96820;-91
2022/01/16 05:46:52;;;;;;;119.73;51.40;;;;;;;0.06;65.04;100775.56;4969345;28;97246;-92
2022/01/16 05:49:17;;;;;;;128.23;53.87;;;;;;;0.15;65.19;100810.16;4926194;28;101533;-93
2022/01/16 05:51:43;;;;;;;114.30;51.93;;;;;;;0.21;65.11;100810.25;4927854;28;100700;-92
2022/01/16 05:54:09;;;;;;;115.37;49.67;;;;;;;0.19;65.47;100811.09;4947097;28;97070;-92
2022/01/16 05:56:34;;;;;;;116.17;51.43;;;;;;;0.10;65.39;100777.38;4939318;28;96995;-90
2022/01/16 05:59:00;;;;;;;120.17;53.13;;;;;;;0.27;65.40;100798.31;4969785;28;101135;-92
2022/01/16 06:01:26;;;;;;;126.80;54.33;;;;;;;0.19;65.44;100803.34;4918209;28;102405;-92
2022/01/16 06:03:51;;;;;;;125.13;53.77;;;;;;;0.11;65.41;100805.78;4968561;28;97315;-92
2022/01/16 06:06:17;;;;;;;113.07;51.30;;;;;;;0.11;65.71;100792.88;4957278;28;97493;-92
2022/01/16 06:08:43;;;;;;;110.70;53.40;;;;;;;-0.01;65.71;100788.38;4952793;28;100111;-93
2022/01/16 06:11:08;;;;;;;111.53;52.40;;;;;;;-0.04;65.53;100790.91;4953676;28;99662;-92
2022/01/16 06:13:34;;;;;;;123.43;49.53;;;;;;;-0.11;65.90;100777.91;4954900;28;97192;-92
2022/01/16 06:16:02;;;;;;;113.20;50.90;;;;;;;0.01;65.58;100787.56;4954207;28;97203;-92
2022/01/16 06:18:28;;;;;;;121.43;54.50;;;;;;;0.01;65.57;100785.84;4957995;28;101371;-91
2022/01/16 06:20:53;;;;;;;118.87;54.77;;;;;;;-0.11;65.99;100776.19;4967987;28;101058;-92
2022/01/16 06:23:20;;;;;;;114.53;49.33;;;;;;;-0.06;66.18;100777.13;4956128;28;96739;-91
2022/01/16 06:25:45;;;;;;;118.30;51.23;;;;;;;-0.07;66.16;100767.63;4954914;28;97239;-92
2022/01/16 06:28:11;;;;;;;112.03;50.10;;;;;;;-0.36;65.70;100719.84;4962935;28;101086;-92
2022/01/16 06:30:37;;;;;;;116.03;52.83;;;;;;;-0.31;65.58;100731.13;4952575;28;99538;-91
2022/01/16 06:33:05;;;;;;;123.43;53.00;;;;;;;-0.05;66.20;100767.69;4990031;28;96907;-92
2022/01/16 06:35:31;;;;;;;108.77;52.33;;;;;;;-0.16;66.08;100745.97;4923048;28;97148;-92
2022/01/16 06:37:57;;;;;;;114.83;51.30;;;;;;;-0.26;65.99;100747.56;4962132;28;99333;-93
2022/01/16 06:40:22;;;;;;;117.73;53.93;;;;;;;-0.20;66.27;100752.81;4962124;28;100229;-92
2022/01/16 06:42:48;;;;;;;117.00;52.07;;;;;;;-0.13;65.90;100753.78;4971521;28;96808;-92
2022/01/16 06:45:14;;;;;;;108.73;50.60;;;;;;;-0.09;65.63;100740.06;4934267;28;97445;-92
2022/01/16 06:47:39;;;;;;;114.70;49.17;;;;;;;-0.06;65.95;100747.84;4950683;28;101463;-93
2022/01/16 06:50:07;;;;;;;105.37;47.63;;;;;;;-0.26;65.94;100722.63;4960818;28;100331;-92
2022/01/16 06:52:32;;;;;;;104.03;48.13;;;;;;;-0.10;66.30;100746.06;4923007;28;96885;-92
2022/01/16 06:54:58;;;;;;;104.97;47.53;;;;;;;-0.42;65.89;100705.13;4956550;28;96847;-91
2022/01/16 06:57:23;;;;;;;103.47;48.33;;;;;;;-0.20;65.71;100731.28;4941290;28;99888;-91
2022/01/16 06:59:49;;;;;;;106.10;47.97;;;;;;;-0.35;65.53;100706.09;4937313;28;101313;-91
2022/01/16 07:02:16;;;;;;;107.07;48.67;;;;;;;-0.15;66.31;100729.66;4947905;28;96890;-92
2022/01/16 07:04:47;;;;;;;106.77;46.93;;;;;;;-0.29;66.56;100719.97;4940976;28;97223;-91
2022/01/16 07:07:12;;;;;;;96.27;46.03;;;;;;;-0.18;65.57;100711.53;4923831;28;100016;-91
2022/01/16 07:09:39;;;;;;;96.53;45.50;;;;;;;-0.17;65.89;100719.31;4940737;28;100708;-91
2022/01/16 07:12:06;;;;;;;99.33;46.17;;;;;;;-0.31;65.25;100701.03;4948149;28;96953;-92
2022/01/16 07:14:31;;;;;;;111.10;49.17;;;;;;;-0.28;66.15;100710.53;4927445;28;96851;-92
2022/01/16 07:16:57;;;;;;;106.07;48.63;;;;;;;-0.25;66.01;100718.31;4971033;28;100377;-92
2022/01/16 07:19:22;;;;;;;116.40;50.07;;;;;;;-0.14;65.92;100719.34;4933783;28;101080;-90
2022/01/16 07:21:49;;;;;;;102.40;45.67;;;;;;;-0.24;66.18;100725.19;4939031;28;96977;-92
2022/01/16 07:24:16;;;;;;;101.77;45.53;;;;;;;-0.28;66.06;100707.94;4973884;28;97166;-92
2022/01/16 07:26:45;;;;;;;96.73;47.67;;;;;;;-0.05;65.58;100713.47;4925420;28;98444;-92
2022/01/16 07:29:11;;;;;;;96.80;45.20;;;;;;;-0.16;66.61;100715.00;4932549;28;101694;-92
2022/01/16 07:31:39;;;;;;;97.87;45.77;;;;;;;-0.18;66.35;100720.13;4919378;28;96724;-90
2022/01/16 07:34:08;;;;;;;97.73;46.23;;;;;;;-0.11;65.96;100711.66;4943064;28;97273;-91
2022/01/16 07:36:34;;;;;;;103.97;47.87;;;;;;;-0.38;66.38;100665.63;4936722;28;99814;-92
2022/01/16 07:39:00;;;;;;;105.00;46.30;;;;;;;-0.01;65.98;100720.41;4941605;28;100051;-90
2022/01/16 07:41:26;;;;;;;92.07;43.13;;;;;;;-0.16;66.31;100691.78;4926180;28;96839;-90
2022/01/16 07:43:52;;;;;;;94.57;46.03;;;;;;;0.09;66.08;100711.06;4963533;28;97234;-92
2022/01/16 07:46:17;;;;;;;95.67;44.27;;;;;;;0.17;65.68;100720.66;4953681;28;100123;-92
2022/01/16 07:48:43;;;;;;;107.47;45.90;;;;;;;0.14;66.11;100691.38;4940069;28;99681;-92
2022/01/16 07:51:09;;;;;;;95.60;45.27;;;;;;;0.37;65.94;100720.09;4953516;28;96941;-92
2022/01/16 07:53:35;;;;;;;100.30;43.93;;;;;;;0.31;65.88;100699.34;4971818;28;96858;-92
2022/01/16 07:56:00;;;;;;;102.07;46.07;;;;;;;0.54;65.50;100704.81;4943153;28;100206;-92
2022/01/16 07:58:26;;;;;;;91.33;46.23;;;;;;;0.63;65.25;100702.34;4968861;28;101396;-91
2022/01/16 08:00:52;;;;;;;100.27;46.70;;;;;;;0.84;64.59;100709.50;4970984;28;96711;-92
2022/01/16 08:03:17;;;;;;;108.47;47.57;;;;;;;0.84;64.35;100687.13;4933173;28;97249;-92
2022/01/16 08:05:43;;;;;;;97.40;47.53;;;;;;;0.86;64.79;100712.97;4937956;28;100740;-90
2022/01/16 08:08:09;;;;;;;104.43;47.07;;;;;;;0.86;64.89;100690.56;4959016;28;98369;-91
2022/01/16 08:10:35;;;;;;;99.73;47.70;;;;;;;1.41;64.46;100716.16;4964308;28;97336;-92
2022/01/16 08:13:00;;;;;;;97.27;44.83;;;;;;;1.45;63.60;100704.97;4951919;28;98876;-90
2022/01/16 08:15:26;;;;;;;103.53;47.83;;;;;;;1.19;63.30;100611.59;4938390;28;101364;-91
2022/01/16 08:17:52;;;;;;;97.83;47.47;;;;;;;1.94;62.63;100701.91;4948752;28;101120;-91
2022/01/16 08:20:18;;;;;;;94.23;46.30;;;;;;;2.09;62.14;100683.03;4962133;28;96712;-91
2022/01/16 08:22:45;;;;;;;109.90;48.93;;;;;;;2.23;62.07;100699.53;4926311;28;96825;-91
2022/01/16 08:25:11;;;;;;;95.17;46.83;;;;;;;1.88;62.01;100653.53;4931582;28;101064;-93
2022/01/16 08:27:37;;;;;;;96.57;46.57;;;;;;;2.16;61.94;100692.59;4952339;28;101112;-92
2022/01/16 08:30:05;;;;;;;91.50;44.70;;;;;;;2.15;62.25;100691.72;4900108;28;97022;-93
2022/01/16 08:32:31;;;;;;;92.77;45.97;;;;;;;2.23;61.87;100691.75;4947544;28;98058;-91
2022/01/16 08:34:56;;;;;;;92.33;45.67;;;;;;;2.63;61.05;100687.63;4943110;28;100261;-92
2022/01/16 08:37:22;;;;;;;95.20;47.13;;;;;;;2.85;60.65;100659.19;4931794;28;101059;-92
2022/01/16 08:39:48;;;;;;;102.17;50.03;;;;;;;2.96;60.59;100678.25;4928601;28;96855;-92
2022/01/16 08:42:13;;;;;;;94.33;47.70;;;;;;;3.16;59.86;100671.38;4921971;28;97290;-92
2022/01/16 08:44:39;;;;;;;103.77;48.13;;;;;;;3.45;59.19;100667.94;4936905;28;101505;-88
2022/01/16 08:47:06;;;;;;;94.73;47.77;;;;;;;3.66;59.25;100643.72;4947026;28;100338;-89
2022/01/16 08:49:32;;;;;;;90.90;45.87;;;;;;;3.79;58.62;100649.78;4907263;28;97275;-89
2022/01/16 08:51:58;;;;;;;95.10;47.03;;;;;;;3.92;58.22;100630.69;4945970;28;97427;-87
2022/01/16 08:54:24;;;;;;;101.97;48.07;;;;;;;3.65;58.56;100609.97;4930991;28;100803;-91
2022/01/16 08:56:49;;;;;;;99.47;49.93;;;;;;;4.02;58.19;100631.56;4934135;28;97961;-91
2022/01/16 08:59:15;;;;;;;95.73;47.10;;;;;;;4.28;57.35;100632.34;4926338;28;96798;-94
2022/01/16 09:01:40;;;;;;;92.10;47.63;;;;;;;4.78;56.78;100627.78;4910557;28;96748;-91
2022/01/16 09:04:06;;;;;;;98.23;48.77;;;;;;;4.91;56.32;100634.63;4936973;28;99617;-90
2022/01/16 09:06:32;;;;;;;84.87;45.93;;;;;;;4.71;56.01;100587.97;4941863;28;100396;-91
2022/01/16 09:08:58;;;;;;;95.47;50.00;;;;;;;4.58;57.01;100634.84;4930789;28;96866;-92
2022/01/16 09:11:25;;;;;;;96.47;48.20;;;;;;;4.37;57.50;100631.44;4896935;28;98571;-94
2022/01/16 09:13:52;;;;;;;91.70;47.17;;;;;;;4.93;56.94;100629.44;4959119;28;101636;-92
2022/01/16 09:16:18;;;;;;;92.67;48.10;;;;;;;5.18;56.24;100617.16;4949397;28;101520;-93
2022/01/16 09:18:44;;;;;;;95.00;47.23;;;;;;;5.31;55.97;100612.69;4930988;28;96953;-89
2022/01/16 09:21:10;;;;;;;88.37;46.33;;;;;;;5.31;55.38;100587.53;4924018;28;96964;-91
2022/01/16 09:23:37;;;;;;;93.23;47.03;;;;;;;5.24;57.11;100618.84;4947704;28;98089;-89
2022/01/16 09:26:02;;;;;;;92.43;48.00;;;;;;;5.50;55.57;100623.81;4943646;28;99943;-88
2022/01/16 09:28:28;;;;;;;87.70;47.17;;;;;;;5.53;55.55;100616.84;4968350;28;96781;-87
2022/01/16 09:30:53;;;;;;;86.23;45.17;;;;;;;5.50;56.08;100613.38;4960829;28;97409;-87
2022/01/16 09:33:19;;;;;;;83.57;43.13;;;;;;;5.57;55.96;100615.09;4953008;28;101448;-87
2022/01/16 09:35:44;;;;;;;76.67;39.27;;;;;;;6.03;54.80;100625.97;4926862;28;101113;-87
2022/01/16 09:38:10;;;;;;;79.43;39.87;;;;;;;6.18;55.20;100627.53;4968058;28;96874;-87
2022/01/16 09:40:35;;;;;;;80.27;41.30;;;;;;;6.08;55.03;100605.94;4963813;28;97273;-89
2022/01/16 09:43:03;;;;;;;81.47;42.40;;;;;;;6.32;54.64;100614.34;4968027;28;97488;-84
2022/01/16 09:45:30;;;;;;;84.23;43.17;;;;;;;6.26;54.74;100635.28;4942858;28;99133;-91
2022/01/16 09:47:55;;;;;;;80.17;40.23;;;;;;;5.98;54.79;100632.09;4938548;28;97448;-86
2022/01/16 09:50:24;;;;;;;73.97;38.63;;;;;;;5.67;55.51;100622.81;4979430;28;97554;-84
2022/01/16 09:52:50;;;;;;;81.17;40.50;;;;;;;5.82;55.85;100626.16;4965248;28;101321;-85
2022/01/16 09:55:16;;;;;;;76.33;41.07;;;;;;;5.68;55.72;100628.88;4951954;28;101441;-84
2022/01/16 09:57:42;;;;;;;79.50;40.77;;;;;;;6.02;56.24;100621.63;4966899;28;97330;-84
2022/01/16 10:00:10;;;;;;;73.68;38.70;;;;;;;6.28;55.54;100608.31;4965903;28;96939;-86
2022/01/16 10:02:43;;;;;;;76.00;38.13;;;;;;;6.54;54.85;100600.16;4975454;28;97422;-85
2022/01/16 10:05:38;;;;;;;75.93;38.90;;;;;;;6.74;54.14;100612.06;4953858;28;98035;-84
2022/01/16 10:08:08;;;;;;;72.20;35.10;;;;;;;7.07;53.52;100574.19;4967430;28;96819;-85
2022/01/16 10:10:43;;;;;;;71.07;35.33;;;;;;;7.17;52.01;100554.84;4968433;28;96738;-85
2022/01/16 10:13:22;;;;;;;71.60;35.87;;;;;;;7.24;53.03;100600.00;4950141;28;100819;-84
2022/01/16 10:15:55;;;;;;;69.70;35.88;;;;;;;7.70;52.26;100589.63;4962533;28;101354;-85
2022/01/16 10:18:39;;;;;;;69.30;33.10;;;;;;;7.82;51.77;100600.75;4932829;28;97233;-84
2022/01/16 10:21:07;;;;;;;59.25;32.08;;;;;;;7.86;51.72;100569.31;4982904;28;96881;-85
2022/01/16 10:23:41;;;;;;;65.05;32.78;;;;;;;7.44;52.23;100569.19;4966829;28;101962;-84
2022/01/16 10:26:18;;;;;;;63.20;31.77;;;;;;;7.25;52.79;100580.84;4963268;28;97919;-84
2022/01/16 10:28:44;;;;;;;58.38;32.20;;;;;;;7.34;52.68;100574.63;4942285;28;97322;-85
2022/01/16 10:31:17;;;;;;;67.05;33.95;;;;;;;7.17;52.31;100535.72;4932532;28;97228;-91
2022/01/16 10:33:43;;;;;;;68.43;34.60;;;;;;;7.13;53.14;100565.41;4927554;28;101679;-90
2022/01/16 10:36:09;;;;;;;64.25;33.53;;;;;;;7.17;53.08;100559.22;4968884;28;100511;-89
2022/01/16 10:38:34;;;;;;;66.20;35.83;;;;;;;7.07;53.05;100536.75;4942432;28;97218;-90
2022/01/16 10:41:00;;;;;;;71.88;36.40;;;;;;;6.91;53.92;100549.19;4917074;28;98825;-91
2022/01/16 10:43:37;;;;;;;71.03;34.60;;;;;;;6.85;53.82;100529.28;4941895;28;101282;-90
2022/01/16 10:46:02;;;;;;;67.27;35.90;;;;;;;6.87;54.64;100542.31;4974264;28;101484;-89
2022/01/16 10:48:28;;;;;;;73.22;38.05;;;;;;;6.87;54.84;100517.06;4952170;28;97987;-89
2022/01/16 10:50:54;;;;;;;67.38;37.28;;;;;;;6.90;55.09;100517.03;4937124;28;96769;-90
2022/01/16 10:53:27;;;;;;;69.95;36.70;;;;;;;6.77;55.10;100525.91;4924162;28;101217;-89
2022/01/16 10:55:54;;;;;;;68.90;35.33;;;;;;;6.46;55.72;100517.69;4949504;28;101493;-90
2022/01/16 10:58:24;;;;;;;70.70;37.65;;;;;;;6.30;55.69;100491.81;4946066;28;96781;-91
2022/01/16 11:01:03;;;;;;;68.00;36.10;;;;;;;6.17;56.19;100464.19;4964333;28;98073;-90
2022/01/16 11:03:41;;;;;;;72.73;35.57;;;;;;;6.40;56.72;100507.31;4948541;28;101474;-91
2022/01/16 11:06:06;;;;;;;63.77;33.50;;;;;;;6.34;56.55;100498.72;4965229;28;98346;-90
2022/01/16 11:08:32;;;;;;;63.53;32.92;;;;;;;6.48;55.93;100493.28;4955352;28;96708;-91
2022/01/16 11:10:59;;;;;;;67.90;34.77;;;;;;;6.53;56.36;100499.31;4934493;28;97169;-90
2022/01/16 11:13:32;;;;;;;58.03;31.50;;;;;;;6.44;56.31;100489.00;4928920;28;101867;-91
2022/01/16 11:16:04;;;;;;;53.15;27.88;;;;;;;6.32;55.79;100497.00;4941036;28;100953;-85
2022/01/16 11:18:29;;;;;;;;;;;;;;;6.28;56.18;100501.41;4952017;28;96770;-86
2022/01/16 11:26:00;;;;;;;96.93;34.70;;;;;;;6.20;55.96;100484.16;4950052;28;101690;-86
2022/01/16 11:28:26;;;;;;;78.45;33.78;;;;;;;6.02;56.57;100472.19;4941090;28;96984;-86
2022/01/16 11:31:01;;;;;;;60.83;28.43;;;;;;;6.31;56.58;100506.59;4945535;28;97027;-85
2022/01/16 11:33:28;;;;;;;60.97;27.43;;;;;;;6.29;57.31;100505.75;4950945;28;100565;-87
2022/01/16 11:36:00;;;;;;;52.83;25.87;;;;;;;6.38;57.33;100507.34;4965013;28;101043;-85
2022/01/16 11:38:32;;;;;;;52.78;26.17;;;;;;;6.40;56.76;100496.88;4960143;28;97262;-85
2022/01/16 11:41:04;;;;;;;51.47;25.92;;;;;;;6.11;56.38;100466.91;4950840;28;96888;-86
2022/01/16 11:43:32;;;;;;;50.40;25.13;;;;;;;6.26;56.98;100497.97;4949150;28;97688;-84
2022/01/16 11:46:16;;;;;;;46.35;25.00;;;;;;;6.09;57.55;100472.09;4948319;28;101343;-85
2022/01/16 11:48:44;;;;;;;45.73;22.90;;;;;;;6.25;57.11;100482.31;4946900;28;97700;-86
2022/01/16 11:51:32;;;;;;;47.05;24.45;;;;;;;6.31;57.01;100477.91;4984657;28;97793;-85
2022/01/16 11:54:18;;;;;;;46.57;24.30;;;;;;;6.31;57.05;100477.03;4958667;28;101450;-90